sensor_id;sensor_type;location;lat;lon;timestamp;P1;durP1;ratioP1;P2;durP2;ratioP2
6937;SDS011;40040;42.706;23.372;2024-02-15T00:00:28;11.13;;;7.27;;
6937;SDS011;40040;42.706;23.372;2024-02-15T00:02:55;11.27;;;6.73;;
6937;SDS011;40040;42.706;23.372;2024-02-15T00:05:24;10.37;;;6.57;;
6937;SDS011;40040;42.706;23.372;2024-02-15T00:07:51;13.83;;;7.67;;
6937;SDS011;40040;42.706;23.372;2024-02-15T00:10:18;18.17;;;9.23;;
6937;SDS011;40040;42.706;23.372;2024-02-15T00:12:46;14.90;;;7.60;;
6937;SDS011;40040;42.706;23.372;2024-02-15T00:15:15;19.30;;;8.17;;
6937;SDS011;40040;42.706;23.372;2024-02-15T00:17:42;17.70;;;8.57;;
6937;SDS011;40040;42.706;23.372;2024-02-15T00:20:09;13.47;;;7.07;;
6937;SDS011;40040;42.706;23.372;2024-02-15T00:22:38;11.77;;;7.33;;
6937;SDS011;40040;42.706;23.372;2024-02-15T00:25:06;9.43;;;6.43;;
6937;SDS011;40040;42.706;23.372;2024-02-15T00:27:35;12.43;;;7.10;;
6937;SDS011;40040;42.706;23.372;2024-02-15T00:30:02;10.83;;;6.73;;
6937;SDS011;40040;42.706;23.372;2024-02-15T00:32:33;11.53;;;7.00;;
6937;SDS011;40040;42.706;23.372;2024-02-15T00:35:00;11.53;;;7.00;;
6937;SDS011;40040;42.706;23.372;2024-02-15T00:37:26;12.47;;;6.90;;
6937;SDS011;40040;42.706;23.372;2024-02-15T00:39:54;11.43;;;6.53;;
6937;SDS011;40040;42.706;23.372;2024-02-15T00:42:21;11.40;;;7.37;;
6937;SDS011;40040;42.706;23.372;2024-02-15T00:44:48;11.73;;;6.87;;
6937;SDS011;40040;42.706;23.372;2024-02-15T00:47:15;8.37;;;6.40;;
6937;SDS011;40040;42.706;23.372;2024-02-15T00:49:43;11.17;;;6.73;;
6937;SDS011;40040;42.706;23.372;2024-02-15T00:52:10;10.27;;;6.00;;
6937;SDS011;40040;42.706;23.372;2024-02-15T00:54:37;11.37;;;6.93;;
6937;SDS011;40040;42.706;23.372;2024-02-15T00:57:05;11.37;;;6.77;;
6937;SDS011;40040;42.706;23.372;2024-02-15T00:59:32;11.47;;;6.63;;
6937;SDS011;40040;42.706;23.372;2024-02-15T01:02:01;11.80;;;6.63;;
6937;SDS011;40040;42.706;23.372;2024-02-15T01:04:28;9.43;;;6.47;;
6937;SDS011;40040;42.706;23.372;2024-02-15T01:06:55;11.73;;;7.10;;
6937;SDS011;40040;42.706;23.372;2024-02-15T01:09:22;11.33;;;6.37;;
6937;SDS011;40040;42.706;23.372;2024-02-15T01:11:49;12.13;;;7.30;;
6937;SDS011;40040;42.706;23.372;2024-02-15T01:14:17;11.87;;;6.67;;
6937;SDS011;40040;42.706;23.372;2024-02-15T01:16:45;11.93;;;6.77;;
6937;SDS011;40040;42.706;23.372;2024-02-15T01:19:12;9.67;;;6.10;;
6937;SDS011;40040;42.706;23.372;2024-02-15T01:21:38;10.63;;;6.47;;
6937;SDS011;40040;42.706;23.372;2024-02-15T01:24:05;11.57;;;6.60;;
6937;SDS011;40040;42.706;23.372;2024-02-15T01:26:33;9.67;;;6.37;;
6937;SDS011;40040;42.706;23.372;2024-02-15T01:29:00;12.77;;;7.00;;
6937;SDS011;40040;42.706;23.372;2024-02-15T01:31:29;10.57;;;6.67;;
6937;SDS011;40040;42.706;23.372;2024-02-15T01:33:57;8.63;;;6.23;;
6937;SDS011;40040;42.706;23.372;2024-02-15T01:36:23;13.73;;;7.00;;
6937;SDS011;40040;42.706;23.372;2024-02-15T01:38:51;10.97;;;6.50;;
6937;SDS011;40040;42.706;23.372;2024-02-15T01:41:18;11.10;;;6.60;;
6937;SDS011;40040;42.706;23.372;2024-02-15T01:43:45;11.43;;;7.00;;
6937;SDS011;40040;42.706;23.372;2024-02-15T01:46:13;10.53;;;5.93;;
6937;SDS011;40040;42.706;23.372;2024-02-15T01:48:42;9.13;;;6.23;;
6937;SDS011;40040;42.706;23.372;2024-02-15T01:51:10;10.43;;;6.77;;
6937;SDS011;40040;42.706;23.372;2024-02-15T01:53:40;9.30;;;6.00;;
6937;SDS011;40040;42.706;23.372;2024-02-15T01:56:08;10.10;;;6.03;;
6937;SDS011;40040;42.706;23.372;2024-02-15T01:58:36;11.57;;;6.83;;
6937;SDS011;40040;42.706;23.372;2024-02-15T02:01:06;10.67;;;6.83;;
6937;SDS011;40040;42.706;23.372;2024-02-15T02:03:33;8.77;;;6.03;;
6937;SDS011;40040;42.706;23.372;2024-02-15T02:06:02;10.03;;;5.87;;
6937;SDS011;40040;42.706;23.372;2024-02-15T02:08:30;10.87;;;6.37;;
6937;SDS011;40040;42.706;23.372;2024-02-15T02:10:56;14.13;;;6.60;;
6937;SDS011;40040;42.706;23.372;2024-02-15T02:13:23;11.27;;;6.50;;
6937;SDS011;40040;42.706;23.372;2024-02-15T02:15:50;13.30;;;6.67;;
6937;SDS011;40040;42.706;23.372;2024-02-15T02:18:17;9.57;;;5.97;;
6937;SDS011;40040;42.706;23.372;2024-02-15T02:20:44;9.57;;;6.60;;
6937;SDS011;40040;42.706;23.372;2024-02-15T02:23:14;9.10;;;6.43;;
6937;SDS011;40040;42.706;23.372;2024-02-15T02:25:45;9.37;;;6.57;;
6937;SDS011;40040;42.706;23.372;2024-02-15T02:28:14;10.47;;;6.80;;
6937;SDS011;40040;42.706;23.372;2024-02-15T02:30:42;9.87;;;6.90;;
6937;SDS011;40040;42.706;23.372;2024-02-15T02:33:11;11.13;;;6.90;;
6937;SDS011;40040;42.706;23.372;2024-02-15T02:35:44;9.87;;;6.73;;
6937;SDS011;40040;42.706;23.372;2024-02-15T02:38:11;11.33;;;7.13;;
6937;SDS011;40040;42.706;23.372;2024-02-15T02:40:39;11.83;;;6.90;;
6937;SDS011;40040;42.706;23.372;2024-02-15T02:43:08;10.20;;;6.67;;
6937;SDS011;40040;42.706;23.372;2024-02-15T02:45:35;11.43;;;6.83;;
6937;SDS011;40040;42.706;23.372;2024-02-15T02:48:02;10.33;;;6.27;;
6937;SDS011;40040;42.706;23.372;2024-02-15T02:50:29;9.83;;;6.83;;
6937;SDS011;40040;42.706;23.372;2024-02-15T02:52:55;9.13;;;6.50;;
6937;SDS011;40040;42.706;23.372;2024-02-15T02:55:22;11.00;;;7.17;;
6937;SDS011;40040;42.706;23.372;2024-02-15T02:57:52;10.67;;;6.53;;
6937;SDS011;40040;42.706;23.372;2024-02-15T03:00:21;8.47;;;6.13;;
6937;SDS011;40040;42.706;23.372;2024-02-15T03:02:48;15.47;;;8.10;;
6937;SDS011;40040;42.706;23.372;2024-02-15T03:05:15;13.83;;;7.97;;
6937;SDS011;40040;42.706;23.372;2024-02-15T03:07:42;11.03;;;7.20;;
6937;SDS011;40040;42.706;23.372;2024-02-15T03:10:09;10.87;;;6.83;;
6937;SDS011;40040;42.706;23.372;2024-02-15T03:12:39;13.87;;;7.30;;
6937;SDS011;40040;42.706;23.372;2024-02-15T03:15:06;10.73;;;6.80;;
6937;SDS011;40040;42.706;23.372;2024-02-15T03:17:37;13.17;;;7.30;;
6937;SDS011;40040;42.706;23.372;2024-02-15T03:20:05;16.83;;;7.97;;
6937;SDS011;40040;42.706;23.372;2024-02-15T03:22:36;14.63;;;6.90;;
6937;SDS011;40040;42.706;23.372;2024-02-15T03:25:04;18.17;;;8.80;;
6937;SDS011;40040;42.706;23.372;2024-02-15T03:27:33;11.63;;;7.33;;
6937;SDS011;40040;42.706;23.372;2024-02-15T03:30:00;10.13;;;7.00;;
6937;SDS011;40040;42.706;23.372;2024-02-15T03:32:27;11.13;;;7.40;;
6937;SDS011;40040;42.706;23.372;2024-02-15T03:34:55;14.17;;;7.37;;
6937;SDS011;40040;42.706;23.372;2024-02-15T03:37:22;14.03;;;7.47;;
6937;SDS011;40040;42.706;23.372;2024-02-15T03:39:49;13.23;;;7.67;;
6937;SDS011;40040;42.706;23.372;2024-02-15T03:42:16;11.17;;;7.27;;
6937;SDS011;40040;42.706;23.372;2024-02-15T03:44:43;11.67;;;7.37;;
6937;SDS011;40040;42.706;23.372;2024-02-15T03:47:10;13.47;;;7.17;;
6937;SDS011;40040;42.706;23.372;2024-02-15T03:49:38;11.30;;;7.30;;
6937;SDS011;40040;42.706;23.372;2024-02-15T03:52:08;12.17;;;7.20;;
6937;SDS011;40040;42.706;23.372;2024-02-15T03:54:35;12.77;;;7.63;;
6937;SDS011;40040;42.706;23.372;2024-02-15T03:57:02;13.97;;;8.10;;
6937;SDS011;40040;42.706;23.372;2024-02-15T03:59:31;13.37;;;7.87;;
6937;SDS011;40040;42.706;23.372;2024-02-15T04:02:00;13.77;;;7.60;;
6937;SDS011;40040;42.706;23.372;2024-02-15T04:04:28;14.37;;;7.47;;
6937;SDS011;40040;42.706;23.372;2024-02-15T04:06:55;13.67;;;7.33;;
6937;SDS011;40040;42.706;23.372;2024-02-15T04:09:23;12.13;;;7.07;;
6937;SDS011;40040;42.706;23.372;2024-02-15T04:11:50;14.07;;;7.43;;
6937;SDS011;40040;42.706;23.372;2024-02-15T04:14:18;12.00;;;8.20;;
6937;SDS011;40040;42.706;23.372;2024-02-15T04:16:44;12.73;;;7.13;;
6937;SDS011;40040;42.706;23.372;2024-02-15T04:19:11;13.33;;;7.47;;
6937;SDS011;40040;42.706;23.372;2024-02-15T04:21:38;15.33;;;7.10;;
6937;SDS011;40040;42.706;23.372;2024-02-15T04:24:06;14.20;;;7.43;;
6937;SDS011;40040;42.706;23.372;2024-02-15T04:26:34;12.53;;;6.83;;
6937;SDS011;40040;42.706;23.372;2024-02-15T04:29:02;11.73;;;7.07;;
6937;SDS011;40040;42.706;23.372;2024-02-15T04:31:29;13.63;;;7.37;;
6937;SDS011;40040;42.706;23.372;2024-02-15T04:33:57;12.00;;;7.27;;
6937;SDS011;40040;42.706;23.372;2024-02-15T04:36:24;13.40;;;7.53;;
6937;SDS011;40040;42.706;23.372;2024-02-15T04:38:51;13.80;;;7.33;;
6937;SDS011;40040;42.706;23.372;2024-02-15T04:41:19;13.27;;;7.90;;
6937;SDS011;40040;42.706;23.372;2024-02-15T04:43:50;12.67;;;7.47;;
6937;SDS011;40040;42.706;23.372;2024-02-15T04:46:17;14.63;;;8.30;;
6937;SDS011;40040;42.706;23.372;2024-02-15T04:48:46;18.90;;;9.80;;
6937;SDS011;40040;42.706;23.372;2024-02-15T04:51:14;13.27;;;7.30;;
6937;SDS011;40040;42.706;23.372;2024-02-15T04:53:42;12.30;;;6.67;;
6937;SDS011;40040;42.706;23.372;2024-02-15T04:56:11;11.77;;;6.90;;
6937;SDS011;40040;42.706;23.372;2024-02-15T04:58:40;14.97;;;8.17;;
6937;SDS011;40040;42.706;23.372;2024-02-15T05:01:14;19.13;;;9.80;;
6937;SDS011;40040;42.706;23.372;2024-02-15T05:03:42;13.60;;;8.37;;
6937;SDS011;40040;42.706;23.372;2024-02-15T05:06:09;15.93;;;8.07;;
6937;SDS011;40040;42.706;23.372;2024-02-15T05:08:38;13.37;;;7.17;;
6937;SDS011;40040;42.706;23.372;2024-02-15T05:11:07;14.00;;;7.40;;
6937;SDS011;40040;42.706;23.372;2024-02-15T05:13:40;13.70;;;7.30;;
6937;SDS011;40040;42.706;23.372;2024-02-15T05:16:07;19.07;;;8.87;;
6937;SDS011;40040;42.706;23.372;2024-02-15T05:18:35;15.13;;;7.57;;
6937;SDS011;40040;42.706;23.372;2024-02-15T05:21:03;19.83;;;7.93;;
6937;SDS011;40040;42.706;23.372;2024-02-15T05:23:34;14.67;;;8.20;;
6937;SDS011;40040;42.706;23.372;2024-02-15T05:26:01;14.93;;;7.90;;
6937;SDS011;40040;42.706;23.372;2024-02-15T05:28:28;21.67;;;10.07;;
6937;SDS011;40040;42.706;23.372;2024-02-15T05:31:08;10.40;;;6.63;;
6937;SDS011;40040;42.706;23.372;2024-02-15T05:33:38;16.87;;;7.87;;
6937;SDS011;40040;42.706;23.372;2024-02-15T05:36:05;14.90;;;7.07;;
6937;SDS011;40040;42.706;23.372;2024-02-15T05:38:33;16.23;;;8.23;;
6937;SDS011;40040;42.706;23.372;2024-02-15T05:41:00;12.70;;;7.23;;
6937;SDS011;40040;42.706;23.372;2024-02-15T05:43:28;11.70;;;7.07;;
6937;SDS011;40040;42.706;23.372;2024-02-15T05:45:55;10.97;;;7.10;;
6937;SDS011;40040;42.706;23.372;2024-02-15T05:48:23;15.23;;;7.50;;
6937;SDS011;40040;42.706;23.372;2024-02-15T05:50:51;18.40;;;9.73;;
6937;SDS011;40040;42.706;23.372;2024-02-15T05:53:19;14.73;;;7.77;;
6937;SDS011;40040;42.706;23.372;2024-02-15T05:55:46;19.60;;;9.33;;
6937;SDS011;40040;42.706;23.372;2024-02-15T05:58:14;13.97;;;7.53;;
6937;SDS011;40040;42.706;23.372;2024-02-15T06:00:42;21.63;;;9.77;;
6937;SDS011;40040;42.706;23.372;2024-02-15T06:03:09;18.57;;;7.83;;
6937;SDS011;40040;42.706;23.372;2024-02-15T06:05:37;16.53;;;7.37;;
6937;SDS011;40040;42.706;23.372;2024-02-15T06:08:06;20.47;;;9.00;;
6937;SDS011;40040;42.706;23.372;2024-02-15T06:10:33;24.10;;;11.20;;
6937;SDS011;40040;42.706;23.372;2024-02-15T06:13:00;13.10;;;7.03;;
6937;SDS011;40040;42.706;23.372;2024-02-15T06:15:27;26.20;;;10.80;;
6937;SDS011;40040;42.706;23.372;2024-02-15T06:17:54;20.27;;;9.43;;
6937;SDS011;40040;42.706;23.372;2024-02-15T06:20:22;23.47;;;9.17;;
6937;SDS011;40040;42.706;23.372;2024-02-15T06:22:50;24.57;;;10.40;;
6937;SDS011;40040;42.706;23.372;2024-02-15T06:25:18;15.63;;;8.13;;
6937;SDS011;40040;42.706;23.372;2024-02-15T06:27:46;21.93;;;9.37;;
6937;SDS011;40040;42.706;23.372;2024-02-15T06:30:14;18.03;;;8.00;;
6937;SDS011;40040;42.706;23.372;2024-02-15T06:32:58;13.53;;;8.17;;
6937;SDS011;40040;42.706;23.372;2024-02-15T06:35:43;24.10;;;9.53;;
6937;SDS011;40040;42.706;23.372;2024-02-15T06:38:27;14.27;;;7.83;;
6937;SDS011;40040;42.706;23.372;2024-02-15T06:41:13;21.07;;;8.40;;
6937;SDS011;40040;42.706;23.372;2024-02-15T06:43:40;14.40;;;7.00;;
6937;SDS011;40040;42.706;23.372;2024-02-15T06:46:06;16.97;;;7.83;;
6937;SDS011;40040;42.706;23.372;2024-02-15T06:48:35;18.47;;;8.73;;
6937;SDS011;40040;42.706;23.372;2024-02-15T06:51:03;18.57;;;8.57;;
6937;SDS011;40040;42.706;23.372;2024-02-15T06:53:31;19.73;;;9.23;;
6937;SDS011;40040;42.706;23.372;2024-02-15T06:55:58;48.10;;;13.67;;
6937;SDS011;40040;42.706;23.372;2024-02-15T06:58:26;27.23;;;9.23;;
6937;SDS011;40040;42.706;23.372;2024-02-15T07:00:53;18.27;;;8.20;;
6937;SDS011;40040;42.706;23.372;2024-02-15T07:03:20;20.17;;;8.80;;
6937;SDS011;40040;42.706;23.372;2024-02-15T07:05:47;16.80;;;8.50;;
6937;SDS011;40040;42.706;23.372;2024-02-15T07:08:15;13.33;;;7.57;;
6937;SDS011;40040;42.706;23.372;2024-02-15T07:10:41;19.63;;;8.07;;
6937;SDS011;40040;42.706;23.372;2024-02-15T07:13:08;15.03;;;7.83;;
6937;SDS011;40040;42.706;23.372;2024-02-15T07:15:37;28.67;;;10.63;;
6937;SDS011;40040;42.706;23.372;2024-02-15T07:18:04;18.97;;;8.83;;
6937;SDS011;40040;42.706;23.372;2024-02-15T07:20:32;14.87;;;7.20;;
6937;SDS011;40040;42.706;23.372;2024-02-15T07:22:59;16.17;;;7.53;;
6937;SDS011;40040;42.706;23.372;2024-02-15T07:25:26;17.83;;;8.20;;
6937;SDS011;40040;42.706;23.372;2024-02-15T07:27:52;25.07;;;8.10;;
6937;SDS011;40040;42.706;23.372;2024-02-15T07:30:19;17.97;;;8.43;;
6937;SDS011;40040;42.706;23.372;2024-02-15T07:32:49;19.27;;;7.37;;
6937;SDS011;40040;42.706;23.372;2024-02-15T07:35:16;17.03;;;7.60;;
6937;SDS011;40040;42.706;23.372;2024-02-15T07:37:50;19.17;;;8.37;;
6937;SDS011;40040;42.706;23.372;2024-02-15T07:40:20;29.90;;;10.77;;
6937;SDS011;40040;42.706;23.372;2024-02-15T07:42:48;15.57;;;7.87;;
6937;SDS011;40040;42.706;23.372;2024-02-15T07:45:17;22.07;;;9.00;;
6937;SDS011;40040;42.706;23.372;2024-02-15T07:47:44;25.07;;;9.90;;
6937;SDS011;40040;42.706;23.372;2024-02-15T07:50:15;23.97;;;8.27;;
6937;SDS011;40040;42.706;23.372;2024-02-15T07:52:45;20.93;;;8.87;;
6937;SDS011;40040;42.706;23.372;2024-02-15T07:55:13;14.47;;;7.80;;
6937;SDS011;40040;42.706;23.372;2024-02-15T07:57:40;16.73;;;7.90;;
6937;SDS011;40040;42.706;23.372;2024-02-15T08:00:07;12.97;;;7.57;;
6937;SDS011;40040;42.706;23.372;2024-02-15T08:02:35;16.50;;;7.63;;
6937;SDS011;40040;42.706;23.372;2024-02-15T08:05:05;16.17;;;7.37;;
6937;SDS011;40040;42.706;23.372;2024-02-15T08:07:37;9.83;;;6.53;;
6937;SDS011;40040;42.706;23.372;2024-02-15T08:10:05;13.17;;;7.20;;
6937;SDS011;40040;42.706;23.372;2024-02-15T08:12:38;14.50;;;7.17;;
6937;SDS011;40040;42.706;23.372;2024-02-15T08:15:06;18.33;;;8.07;;
6937;SDS011;40040;42.706;23.372;2024-02-15T08:17:37;17.10;;;7.63;;
6937;SDS011;40040;42.706;23.372;2024-02-15T08:20:06;11.67;;;7.53;;
6937;SDS011;40040;42.706;23.372;2024-02-15T08:22:34;14.17;;;7.07;;
6937;SDS011;40040;42.706;23.372;2024-02-15T08:25:06;22.03;;;10.03;;
6937;SDS011;40040;42.706;23.372;2024-02-15T08:27:36;15.83;;;8.83;;
6937;SDS011;40040;42.706;23.372;2024-02-15T08:30:07;16.90;;;7.67;;
6937;SDS011;40040;42.706;23.372;2024-02-15T08:32:35;13.80;;;8.20;;
6937;SDS011;40040;42.706;23.372;2024-02-15T08:35:03;14.57;;;7.50;;
6937;SDS011;40040;42.706;23.372;2024-02-15T08:37:31;11.17;;;7.27;;
6937;SDS011;40040;42.706;23.372;2024-02-15T08:39:59;17.20;;;8.80;;
6937;SDS011;40040;42.706;23.372;2024-02-15T08:42:27;12.27;;;6.43;;
6937;SDS011;40040;42.706;23.372;2024-02-15T08:44:56;13.00;;;7.70;;
6937;SDS011;40040;42.706;23.372;2024-02-15T08:47:24;10.60;;;6.93;;
6937;SDS011;40040;42.706;23.372;2024-02-15T08:49:52;20.97;;;10.43;;
6937;SDS011;40040;42.706;23.372;2024-02-15T08:52:19;11.93;;;7.40;;
6937;SDS011;40040;42.706;23.372;2024-02-15T08:54:45;13.30;;;7.20;;
6937;SDS011;40040;42.706;23.372;2024-02-15T08:57:12;17.43;;;8.77;;
6937;SDS011;40040;42.706;23.372;2024-02-15T08:59:45;12.70;;;7.37;;
6937;SDS011;40040;42.706;23.372;2024-02-15T09:02:12;12.80;;;7.67;;
6937;SDS011;40040;42.706;23.372;2024-02-15T09:04:40;15.43;;;6.80;;
6937;SDS011;40040;42.706;23.372;2024-02-15T09:07:07;13.53;;;6.70;;
6937;SDS011;40040;42.706;23.372;2024-02-15T09:09:34;23.33;;;8.27;;
6937;SDS011;40040;42.706;23.372;2024-02-15T09:12:02;14.17;;;7.77;;
6937;SDS011;40040;42.706;23.372;2024-02-15T09:14:31;11.53;;;6.83;;
6937;SDS011;40040;42.706;23.372;2024-02-15T09:16:59;14.67;;;7.60;;
6937;SDS011;40040;42.706;23.372;2024-02-15T09:19:26;10.63;;;7.23;;
6937;SDS011;40040;42.706;23.372;2024-02-15T09:21:53;14.40;;;7.10;;
6937;SDS011;40040;42.706;23.372;2024-02-15T09:24:20;15.23;;;8.47;;
6937;SDS011;40040;42.706;23.372;2024-02-15T09:26:50;13.55;;;6.63;;
6937;SDS011;40040;42.706;23.372;2024-02-15T09:29:17;8.55;;;6.60;;
6937;SDS011;40040;42.706;23.372;2024-02-15T09:31:45;11.85;;;6.63;;
6937;SDS011;40040;42.706;23.372;2024-02-15T09:34:16;11.65;;;6.70;;
6937;SDS011;40040;42.706;23.372;2024-02-15T09:36:43;10.07;;;5.85;;
6937;SDS011;40040;42.706;23.372;2024-02-15T09:39:11;9.85;;;6.65;;
6937;SDS011;40040;42.706;23.372;2024-02-15T09:41:39;11.35;;;6.75;;
6937;SDS011;40040;42.706;23.372;2024-02-15T09:44:08;11.75;;;6.70;;
6937;SDS011;40040;42.706;23.372;2024-02-15T09:46:35;9.95;;;6.63;;
6937;SDS011;40040;42.706;23.372;2024-02-15T09:49:03;14.38;;;6.68;;
6937;SDS011;40040;42.706;23.372;2024-02-15T09:51:34;10.77;;;6.40;;
6937;SDS011;40040;42.706;23.372;2024-02-15T09:54:02;9.93;;;6.05;;
6937;SDS011;40040;42.706;23.372;2024-02-15T09:56:34;11.27;;;7.43;;
6937;SDS011;40040;42.706;23.372;2024-02-15T09:59:02;11.10;;;6.20;;
6937;SDS011;40040;42.706;23.372;2024-02-15T10:01:30;7.28;;;6.10;;
6937;SDS011;40040;42.706;23.372;2024-02-15T10:03:58;9.73;;;6.78;;
6937;SDS011;40040;42.706;23.372;2024-02-15T10:06:25;9.35;;;6.03;;
6937;SDS011;40040;42.706;23.372;2024-02-15T10:08:53;7.15;;;5.82;;
6937;SDS011;40040;42.706;23.372;2024-02-15T10:11:44;9.15;;;5.80;;
6937;SDS011;40040;42.706;23.372;2024-02-15T10:14:21;7.45;;;5.50;;
6937;SDS011;40040;42.706;23.372;2024-02-15T10:16:48;8.43;;;5.95;;
6937;SDS011;40040;42.706;23.372;2024-02-15T10:19:15;9.35;;;6.82;;
6937;SDS011;40040;42.706;23.372;2024-02-15T10:21:42;11.05;;;6.28;;
6937;SDS011;40040;42.706;23.372;2024-02-15T10:24:12;7.05;;;6.03;;
6937;SDS011;40040;42.706;23.372;2024-02-15T10:26:39;7.03;;;6.30;;
6937;SDS011;40040;42.706;23.372;2024-02-15T10:29:06;8.32;;;6.38;;
6937;SDS011;40040;42.706;23.372;2024-02-15T10:31:35;10.85;;;7.22;;
6937;SDS011;40040;42.706;23.372;2024-02-15T10:34:04;9.07;;;6.70;;
6937;SDS011;40040;42.706;23.372;2024-02-15T10:36:32;8.02;;;6.40;;
6937;SDS011;40040;42.706;23.372;2024-02-15T10:39:14;9.48;;;6.22;;
6937;SDS011;40040;42.706;23.372;2024-02-15T10:41:45;10.20;;;6.68;;
6937;SDS011;40040;42.706;23.372;2024-02-15T10:44:16;12.77;;;6.55;;
6937;SDS011;40040;42.706;23.372;2024-02-15T10:46:45;8.40;;;6.00;;
6937;SDS011;40040;42.706;23.372;2024-02-15T10:49:16;8.40;;;6.35;;
6937;SDS011;40040;42.706;23.372;2024-02-15T10:51:44;7.55;;;5.72;;
6937;SDS011;40040;42.706;23.372;2024-02-15T10:54:15;7.35;;;5.78;;
6937;SDS011;40040;42.706;23.372;2024-02-15T10:56:54;8.05;;;6.38;;
6937;SDS011;40040;42.706;23.372;2024-02-15T10:59:31;10.30;;;6.80;;
6937;SDS011;40040;42.706;23.372;2024-02-15T11:02:04;7.68;;;6.60;;
6937;SDS011;40040;42.706;23.372;2024-02-15T11:04:42;8.25;;;6.75;;
6937;SDS011;40040;42.706;23.372;2024-02-15T11:07:12;11.88;;;7.57;;
6937;SDS011;40040;42.706;23.372;2024-02-15T11:09:41;11.63;;;8.07;;
6937;SDS011;40040;42.706;23.372;2024-02-15T11:12:08;6.90;;;5.80;;
6937;SDS011;40040;42.706;23.372;2024-02-15T11:14:36;9.07;;;6.40;;
6937;SDS011;40040;42.706;23.372;2024-02-15T11:17:03;8.13;;;6.63;;
6937;SDS011;40040;42.706;23.372;2024-02-15T11:19:42;16.00;;;8.60;;
6937;SDS011;40040;42.706;23.372;2024-02-15T11:22:13;7.25;;;5.88;;
6937;SDS011;40040;42.706;23.372;2024-02-15T11:24:46;6.78;;;5.60;;
6937;SDS011;40040;42.706;23.372;2024-02-15T11:27:24;8.77;;;6.07;;
6937;SDS011;40040;42.706;23.372;2024-02-15T11:29:53;9.65;;;6.70;;
6937;SDS011;40040;42.706;23.372;2024-02-15T11:32:33;9.18;;;6.80;;
6937;SDS011;40040;42.706;23.372;2024-02-15T11:35:04;6.35;;;5.43;;
6937;SDS011;40040;42.706;23.372;2024-02-15T11:37:55;8.85;;;5.90;;
6937;SDS011;40040;42.706;23.372;2024-02-15T11:40:59;9.68;;;5.80;;
6937;SDS011;40040;42.706;23.372;2024-02-15T11:43:45;14.73;;;8.15;;
6937;SDS011;40040;42.706;23.372;2024-02-15T11:46:21;8.93;;;6.40;;
6937;SDS011;40040;42.706;23.372;2024-02-15T11:48:51;16.52;;;6.90;;
6937;SDS011;40040;42.706;23.372;2024-02-15T11:51:28;7.03;;;5.53;;
6937;SDS011;40040;42.706;23.372;2024-02-15T11:54:02;6.90;;;5.47;;
6937;SDS011;40040;42.706;23.372;2024-02-15T11:59:28;7.10;;;6.05;;
6937;SDS011;40040;42.706;23.372;2024-02-15T12:01:57;12.23;;;7.43;;
6937;SDS011;40040;42.706;23.372;2024-02-15T12:04:42;7.18;;;6.43;;
6937;SDS011;40040;42.706;23.372;2024-02-15T12:07:26;10.23;;;6.28;;
6937;SDS011;40040;42.706;23.372;2024-02-15T12:10:23;12.00;;;6.30;;
6937;SDS011;40040;42.706;23.372;2024-02-15T12:13:10;10.40;;;7.03;;
6937;SDS011;40040;42.706;23.372;2024-02-15T12:15:59;7.85;;;6.55;;
6937;SDS011;40040;42.706;23.372;2024-02-15T12:18:44;9.68;;;6.22;;
6937;SDS011;40040;42.706;23.372;2024-02-15T12:21:18;7.70;;;6.60;;
6937;SDS011;40040;42.706;23.372;2024-02-15T12:23:48;7.65;;;6.70;;
6937;SDS011;40040;42.706;23.372;2024-02-15T12:26:18;10.05;;;7.80;;
6937;SDS011;40040;42.706;23.372;2024-02-15T12:28:49;6.68;;;5.95;;
6937;SDS011;40040;42.706;23.372;2024-02-15T12:31:22;7.75;;;5.50;;
6937;SDS011;40040;42.706;23.372;2024-02-15T12:34:00;6.70;;;6.00;;
6937;SDS011;40040;42.706;23.372;2024-02-15T12:36:31;7.78;;;6.25;;
6937;SDS011;40040;42.706;23.372;2024-02-15T12:38:59;9.45;;;6.22;;
6937;SDS011;40040;42.706;23.372;2024-02-15T12:41:35;7.15;;;5.43;;
6937;SDS011;40040;42.706;23.372;2024-02-15T12:44:02;6.97;;;5.10;;
6937;SDS011;40040;42.706;23.372;2024-02-15T12:46:34;6.10;;;5.50;;
6937;SDS011;40040;42.706;23.372;2024-02-15T12:49:12;6.70;;;5.88;;
6937;SDS011;40040;42.706;23.372;2024-02-15T12:55:06;6.43;;;5.78;;
6937;SDS011;40040;42.706;23.372;2024-02-15T12:57:53;8.15;;;6.90;;
6937;SDS011;40040;42.706;23.372;2024-02-15T13:00:23;6.72;;;5.72;;
6937;SDS011;40040;42.706;23.372;2024-02-15T13:02:55;10.30;;;6.30;;
6937;SDS011;40040;42.706;23.372;2024-02-15T13:05:22;5.80;;;5.28;;
6937;SDS011;40040;42.706;23.372;2024-02-15T13:07:52;8.82;;;6.50;;
6937;SDS011;40040;42.706;23.372;2024-02-15T13:10:20;6.15;;;5.57;;
6937;SDS011;40040;42.706;23.372;2024-02-15T13:12:51;8.13;;;6.32;;
6937;SDS011;40040;42.706;23.372;2024-02-15T13:15:18;7.10;;;5.60;;
6937;SDS011;40040;42.706;23.372;2024-02-15T13:17:46;8.18;;;5.85;;
6937;SDS011;40040;42.706;23.372;2024-02-15T13:20:17;5.70;;;5.20;;
6937;SDS011;40040;42.706;23.372;2024-02-15T13:22:48;8.35;;;5.72;;
6937;SDS011;40040;42.706;23.372;2024-02-15T13:25:15;8.68;;;5.97;;
6937;SDS011;40040;42.706;23.372;2024-02-15T13:27:42;9.02;;;6.70;;
6937;SDS011;40040;42.706;23.372;2024-02-15T13:30:10;8.18;;;5.45;;
6937;SDS011;40040;42.706;23.372;2024-02-15T13:32:38;6.75;;;6.03;;
6937;SDS011;40040;42.706;23.372;2024-02-15T13:35:09;7.22;;;5.68;;
6937;SDS011;40040;42.706;23.372;2024-02-15T13:37:45;7.05;;;5.72;;
6937;SDS011;40040;42.706;23.372;2024-02-15T13:40:13;6.90;;;5.72;;
6937;SDS011;40040;42.706;23.372;2024-02-15T13:42:41;9.48;;;5.72;;
6937;SDS011;40040;42.706;23.372;2024-02-15T13:45:15;8.63;;;4.93;;
6937;SDS011;40040;42.706;23.372;2024-02-15T13:47:43;6.90;;;5.20;;
6937;SDS011;40040;42.706;23.372;2024-02-15T13:50:12;8.00;;;5.38;;
6937;SDS011;40040;42.706;23.372;2024-02-15T13:52:40;5.75;;;4.97;;
6937;SDS011;40040;42.706;23.372;2024-02-15T13:55:10;6.43;;;5.18;;
6937;SDS011;40040;42.706;23.372;2024-02-15T13:57:38;5.88;;;5.10;;
6937;SDS011;40040;42.706;23.372;2024-02-15T14:00:06;6.70;;;5.57;;
6937;SDS011;40040;42.706;23.372;2024-02-15T14:02:39;7.15;;;5.18;;
6937;SDS011;40040;42.706;23.372;2024-02-15T14:05:08;7.25;;;5.68;;
6937;SDS011;40040;42.706;23.372;2024-02-15T14:07:38;6.85;;;5.63;;
6937;SDS011;40040;42.706;23.372;2024-02-15T14:10:05;11.68;;;5.53;;
6937;SDS011;40040;42.706;23.372;2024-02-15T14:12:39;8.18;;;6.22;;
6937;SDS011;40040;42.706;23.372;2024-02-15T14:15:06;7.25;;;5.63;;
6937;SDS011;40040;42.706;23.372;2024-02-15T14:17:33;8.38;;;6.15;;
6937;SDS011;40040;42.706;23.372;2024-02-15T14:20:00;10.88;;;5.60;;
6937;SDS011;40040;42.706;23.372;2024-02-15T14:22:33;9.00;;;6.32;;
6937;SDS011;40040;42.706;23.372;2024-02-15T14:25:00;13.10;;;8.77;;
6937;SDS011;40040;42.706;23.372;2024-02-15T14:27:27;8.32;;;7.05;;
6937;SDS011;40040;42.706;23.372;2024-02-15T14:29:56;17.17;;;7.43;;
6937;SDS011;40040;42.706;23.372;2024-02-15T14:32:40;13.98;;;7.28;;
6937;SDS011;40040;42.706;23.372;2024-02-15T14:35:24;14.75;;;7.25;;
6937;SDS011;40040;42.706;23.372;2024-02-15T14:37:51;6.93;;;5.35;;
6937;SDS011;40040;42.706;23.372;2024-02-15T14:40:18;5.15;;;4.72;;
6937;SDS011;40040;42.706;23.372;2024-02-15T14:42:45;8.25;;;5.53;;
6937;SDS011;40040;42.706;23.372;2024-02-15T14:45:13;8.55;;;5.80;;
6937;SDS011;40040;42.706;23.372;2024-02-15T14:47:40;16.92;;;8.23;;
6937;SDS011;40040;42.706;23.372;2024-02-15T14:50:08;7.18;;;5.50;;
6937;SDS011;40040;42.706;23.372;2024-02-15T14:52:38;7.38;;;5.60;;
6937;SDS011;40040;42.706;23.372;2024-02-15T14:55:05;6.65;;;5.68;;
6937;SDS011;40040;42.706;23.372;2024-02-15T14:57:33;7.93;;;5.50;;